KGDV/GDV METAR and TAF weather

Enter ICAO airport designator
Station Type Date Time Source
KGDV METAR 2020/04/09 10:56 UTC NOAA

KGDV 091056Z AUTO 32013KT 10SM CLR M04/M09 A3023 RMK AO2 SLP265 T10441089 FZRANO


Station Type Date Time Source
KGDV Decoded METAR 2020/04/09 10:56 UTC NOAA

Glendive, Dawson Community Airport, MT, United States (KGDV) 47-08N 104-48W
Apr 09, 2020 - 06:56 AM EDT / 2020.04.09 1056 UTC
Wind: from the NW (320 degrees) at 15 MPH (13 KT):0
Visibility: 10 mile(s):0
Sky conditions: clear
Temperature: 24.1 F (-4.4 C)
Windchill: 12 F (-11 C):1
Dew Point: 16.0 F (-8.9 C)
Relative Humidity: 70%
Pressure (altimeter): 30.23 in. Hg (1023 hPa)
ob: KGDV 091056Z AUTO 32013KT 10SM CLR M04/M09 A3023 RMK AO2 SLP265 T10441089 FZRANO
cycle: 11

Station Type Date Time Source
KGDV TAF 2020/04/09 12:24 UTC NOAA

TAF KGDV 091121Z 0912/1012 33011KT P6SM SCT040
FM091800 VRB05KT P6SM SKC

Example: see airport list